Time;durP1;ratioP1;P1;durP2;ratioP2;P2;SDS_P1;SDS_P2;PMS_P1;PMS_P2;Temp;Humidity;BMP_temperature;BMP_pressure;BME280_temperature;BME280_humidity;BME280_pressure;Samples;Min_cycle;Max_cycle;Signal;HPM_P1;HPM_P2
2022/05/03 00:01:49;;;;;;;6.72;6.13;;;14.40;99.90;;;;;;5091984;28;20210;-63
2022/05/03 00:04:27;;;;;;;9.60;5.80;;;14.50;99.90;;;;;;5073858;28;20229;-62
2022/05/03 00:07:03;;;;;;;7.43;6.57;;;14.50;99.90;;;;;;5074551;28;20264;-62
2022/05/03 00:09:38;;;;;;;6.43;5.82;;;14.50;99.90;;;;;;5089785;28;20272;-62
2022/05/03 00:12:12;;;;;;;5.57;5.15;;;14.40;99.90;;;;;;5093091;28;20218;-62
2022/05/03 00:14:45;;;;;;;6.43;5.95;;;14.40;99.90;;;;;;5087657;28;20239;-63
2022/05/03 00:17:15;;;;;;;6.50;6.00;;;14.40;99.90;;;;;;5088173;28;20195;-62
2022/05/03 00:19:45;;;;;;;5.60;5.05;;;14.40;99.90;;;;;;5086274;28;20206;-63
2022/05/03 00:22:14;;;;;;;6.45;5.93;;;14.50;99.90;;;;;;5073742;28;20265;-63
2022/05/03 00:24:42;;;;;;;7.28;5.60;;;14.40;99.90;;;;;;5074013;28;20219;-62
2022/05/03 00:27:10;;;;;;;6.38;5.78;;;14.40;99.90;;;;;;5079305;28;20210;-63
2022/05/03 00:29:38;;;;;;;6.63;6.03;;;14.30;99.90;;;;;;5090900;28;20722;-62
2022/05/03 00:32:06;;;;;;;9.05;5.40;;;14.30;99.90;;;;;;5073443;28;20199;-62
2022/05/03 00:34:36;;;;;;;5.90;5.35;;;14.30;99.90;;;;;;5073981;28;20238;-62
2022/05/03 00:37:05;;;;;;;6.25;5.65;;;14.30;99.90;;;;;;5080027;28;20199;-64
2022/05/03 00:39:33;;;;;;;6.50;5.70;;;14.30;99.90;;;;;;5074008;28;20199;-63
2022/05/03 00:42:07;;;;;;;5.55;5.13;;;14.30;99.90;;;;;;5073144;28;20207;-62
2022/05/03 00:44:58;;;;;;;6.68;6.07;;;14.30;99.90;;;;;;5073901;28;20231;-62
2022/05/03 00:47:45;;;;;;;6.32;5.72;;;14.20;99.90;;;;;;5073645;28;20210;-62
2022/05/03 00:50:29;;;;;;;6.10;5.65;;;14.10;99.90;;;;;;5087639;28;20230;-62
2022/05/03 00:53:03;;;;;;;6.45;5.95;;;14.10;99.90;;;;;;5088153;28;20256;-63
2022/05/03 00:55:47;;;;;;;6.82;6.15;;;14.10;99.90;;;;;;5074079;28;20214;-62
2022/05/03 00:58:28;;;;;;;14.02;6.38;;;14.00;99.90;;;;;;5075706;28;20653;-62
2022/05/03 01:01:03;;;;;;;6.07;5.57;;;14.10;99.90;;;;;;5093144;28;20202;-63
2022/05/03 01:03:41;;;;;;;5.78;5.38;;;14.20;99.90;;;;;;5092182;28;20232;-62
2022/05/03 01:06:21;;;;;;;6.07;5.65;;;14.20;99.90;;;;;;5092917;28;20202;-62
2022/05/03 01:09:04;;;;;;;6.40;5.28;;;14.10;99.90;;;;;;5093125;28;20229;-63
2022/05/03 01:11:41;;;;;;;6.20;5.70;;;14.20;99.90;;;;;;5077047;28;20261;-63
2022/05/03 01:14:29;;;;;;;5.95;5.45;;;14.30;99.90;;;;;;5072490;28;20230;-63
2022/05/03 01:17:00;;;;;;;7.55;5.65;;;14.20;99.90;;;;;;5073164;28;20196;-63
2022/05/03 01:19:38;;;;;;;6.10;5.60;;;14.20;99.90;;;;;;5073379;28;20668;-62
2022/05/03 01:22:09;;;;;;;6.35;5.80;;;14.20;99.90;;;;;;5086327;28;20206;-62
2022/05/03 01:24:58;;;;;;;7.88;5.70;;;14.20;99.90;;;;;;5092536;28;20227;-62
2022/05/03 01:27:53;;;;;;;6.25;5.75;;;14.20;99.90;;;;;;5084729;28;20203;-62
2022/05/03 01:30:22;;;;;;;5.53;5.05;;;14.20;99.90;;;;;;5090471;28;20225;-62
2022/05/03 01:32:53;;;;;;;6.45;5.63;;;14.20;99.90;;;;;;5085762;28;20247;-62
2022/05/03 01:35:22;;;;;;;7.03;6.32;;;14.10;99.90;;;;;;5092508;28;20202;-62
2022/05/03 01:38:19;;;;;;;5.82;5.32;;;14.20;99.90;;;;;;5092109;28;20652;-62
2022/05/03 01:41:16;;;;;;;7.00;5.78;;;14.10;99.90;;;;;;5090068;28;20574;-62
2022/05/03 01:43:59;;;;;;;11.10;5.32;;;14.10;99.90;;;;;;5085144;28;20237;-62
2022/05/03 01:46:35;;;;;;;6.38;5.78;;;14.00;99.90;;;;;;5072688;28;20206;-61
2022/05/03 01:52:15;;;;;;;6.07;5.60;;;13.90;99.90;;;;;;5072547;28;20207;-62
2022/05/03 01:55:08;;;;;;;5.10;4.70;;;13.90;99.90;;;;;;5088474;28;20235;-62
2022/05/03 01:57:48;;;;;;;6.35;5.85;;;14.00;99.90;;;;;;5087345;28;20199;-62
2022/05/03 02:00:17;;;;;;;6.13;5.63;;;14.00;99.90;;;;;;5086450;28;20248;-63
2022/05/03 02:02:55;;;;;;;6.20;5.75;;;14.00;99.90;;;;;;5090389;28;20648;-62
2022/05/03 02:05:38;;;;;;;6.78;6.18;;;14.00;99.90;;;;;;5091831;28;20213;-63
2022/05/03 02:08:12;;;;;;;5.38;4.97;;;14.00;99.90;;;;;;5091514;28;20198;-62
2022/05/03 02:10:58;;;;;;;6.18;5.57;;;14.00;99.90;;;;;;5091873;28;20226;-62
2022/05/03 02:17:02;;;;;;;7.25;6.65;;;14.00;99.90;;;;;;5059459;28;20221;-63
2022/05/03 02:19:57;;;;;;;6.72;6.13;;;13.90;99.90;;;;;;5081253;28;20227;-61
2022/05/03 02:23:07;;;;;;;5.72;5.20;;;14.00;99.90;;;;;;5085321;28;20677;-63
2022/05/03 02:25:46;;;;;;;6.72;6.03;;;14.00;99.90;;;;;;5009451;28;20259;-63
2022/05/03 02:28:22;;;;;;;6.80;6.22;;;13.90;99.90;;;;;;5070356;28;20215;-61
2022/05/03 02:30:52;;;;;;;7.63;6.93;;;13.80;99.90;;;;;;5089158;28;20207;-63
2022/05/03 02:33:23;;;;;;;5.55;5.15;;;13.80;99.90;;;;;;5090443;28;20765;-62
2022/05/03 02:35:56;;;;;;;7.05;6.35;;;13.80;99.90;;;;;;5081458;28;20688;-63
2022/05/03 02:38:30;;;;;;;6.70;6.20;;;13.80;99.90;;;;;;5071592;28;20268;-62
2022/05/03 02:41:02;;;;;;;7.28;6.65;;;13.70;99.90;;;;;;5071567;28;20198;-63
2022/05/03 02:43:32;;;;;;;6.95;6.35;;;13.70;99.90;;;;;;5070696;28;20211;-62
2022/05/03 02:46:16;;;;;;;8.23;7.45;;;13.70;99.90;;;;;;5071595;28;20195;-63
2022/05/03 02:48:53;;;;;;;9.73;6.97;;;13.60;99.90;;;;;;5085818;28;20336;-62
2022/05/03 02:51:29;;;;;;;6.10;5.60;;;13.70;99.90;;;;;;5090832;28;20280;-62
2022/05/03 02:54:03;;;;;;;6.60;6.13;;;13.80;99.90;;;;;;5086950;28;20276;-62
2022/05/03 02:56:46;;;;;;;5.85;5.35;;;13.90;99.90;;;;;;5090990;28;20214;-62
2022/05/03 02:59:21;;;;;;;6.40;5.90;;;14.00;99.90;;;;;;5085465;28;20195;-61
2022/05/03 03:02:01;;;;;;;6.03;5.53;;;13.90;99.90;;;;;;5089020;28;20198;-63
2022/05/03 03:04:36;;;;;;;6.50;6.00;;;13.90;99.90;;;;;;5090727;28;20275;-62
2022/05/03 03:07:06;;;;;;;7.00;6.40;;;13.90;99.90;;;;;;5090567;28;20282;-62
2022/05/03 03:09:44;;;;;;;7.18;6.57;;;13.80;99.90;;;;;;5090452;28;20210;-62
2022/05/03 03:12:26;;;;;;;7.22;6.25;;;13.90;99.90;;;;;;5089855;28;20210;-62
2022/05/03 03:15:03;;;;;;;6.07;5.63;;;13.90;99.90;;;;;;5075900;22;20229;-63
2022/05/03 03:17:35;;;;;;;5.93;5.47;;;13.80;99.90;;;;;;4987797;28;20204;-63
2022/05/03 03:20:07;;;;;;;6.75;5.55;;;13.90;99.90;;;;;;4989435;28;20274;-64
2022/05/03 03:22:42;;;;;;;6.40;5.80;;;14.00;99.90;;;;;;4988413;28;20252;-63
2022/05/03 03:25:11;;;;;;;5.10;4.75;;;14.10;99.90;;;;;;5043039;28;20239;-63
2022/05/03 03:27:42;;;;;;;5.72;5.22;;;14.20;99.90;;;;;;5097833;28;20197;-63
2022/05/03 03:30:12;;;;;;;6.05;5.45;;;14.30;99.90;;;;;;5086989;28;20613;-63
2022/05/03 03:32:43;;;;;;;6.05;5.57;;;14.40;99.90;;;;;;5090652;28;20240;-64
2022/05/03 03:35:13;;;;;;;6.57;5.95;;;14.40;99.90;;;;;;5091217;28;20229;-64
2022/05/03 03:37:45;;;;;;;6.15;5.65;;;14.40;99.90;;;;;;5091332;28;20209;-64
2022/05/03 03:40:14;;;;;;;6.75;5.60;;;14.40;99.90;;;;;;5091401;28;20199;-64
2022/05/03 03:42:44;;;;;;;6.93;5.60;;;14.50;99.90;;;;;;5090365;28;20203;-64
2022/05/03 03:45:13;;;;;;;7.60;5.22;;;14.50;99.90;;;;;;5110483;28;20756;-64
2022/05/03 03:47:43;;;;;;;5.95;5.45;;;14.60;99.90;;;;;;5110531;28;20556;-64
2022/05/03 03:50:12;;;;;;;6.60;6.00;;;14.60;99.90;;;;;;5110778;28;20218;-64
2022/05/03 03:52:42;;;;;;;5.80;5.30;;;14.60;99.90;;;;;;5084021;28;20726;-63
2022/05/03 03:55:13;;;;;;;6.70;5.80;;;14.70;99.90;;;;;;5091078;28;20214;-63
2022/05/03 03:57:41;;;;;;;6.43;5.65;;;14.60;99.90;;;;;;5090327;28;20205;-64
2022/05/03 04:00:11;;;;;;;7.20;5.43;;;14.60;99.90;;;;;;5079865;28;20213;-64
2022/05/03 04:02:41;;;;;;;6.25;5.80;;;14.70;99.90;;;;;;5090408;28;20252;-63
2022/05/03 04:05:15;;;;;;;6.18;5.60;;;14.70;99.90;;;;;;5091184;28;20230;-63
2022/05/03 04:07:43;;;;;;;6.03;5.43;;;14.60;99.90;;;;;;5090740;28;20198;-63
2022/05/03 04:10:13;;;;;;;5.78;5.38;;;14.70;99.90;;;;;;5090840;28;20691;-63
2022/05/03 04:12:42;;;;;;;5.85;5.35;;;14.70;99.90;;;;;;5090351;28;20263;-63
2022/05/03 04:15:10;;;;;;;7.30;5.47;;;14.70;99.90;;;;;;5090749;28;20238;-63
2022/05/03 04:17:42;;;;;;;5.60;5.22;;;14.60;99.90;;;;;;5100372;28;20205;-63
2022/05/03 04:20:12;;;;;;;6.03;5.53;;;14.60;99.90;;;;;;5109462;28;20198;-64
2022/05/03 04:22:40;;;;;;;5.72;5.32;;;14.60;99.90;;;;;;5090167;28;20195;-63
2022/05/03 04:25:09;;;;;;;6.20;5.80;;;14.60;99.90;;;;;;5091338;28;20249;-64
2022/05/03 04:27:39;;;;;;;6.00;5.50;;;14.60;99.90;;;;;;5094268;28;20299;-64
2022/05/03 04:30:08;;;;;;;6.32;5.72;;;14.50;99.90;;;;;;5092428;28;20578;-63
2022/05/03 04:32:36;;;;;;;6.25;5.75;;;14.50;99.90;;;;;;5093782;28;20202;-63
2022/05/03 04:35:04;;;;;;;6.72;6.20;;;14.50;99.90;;;;;;5104667;28;20222;-63
2022/05/03 04:37:32;;;;;;;5.75;5.15;;;14.50;99.90;;;;;;5113605;28;20217;-63
2022/05/03 04:40:00;;;;;;;5.35;4.97;;;14.50;99.90;;;;;;5104669;28;20190;-64
2022/05/03 04:42:28;;;;;;;6.20;5.60;;;14.50;99.90;;;;;;5093329;28;20206;-63
2022/05/03 04:44:57;;;;;;;5.55;5.15;;;14.50;99.90;;;;;;5094143;28;20223;-63
2022/05/03 04:47:25;;;;;;;6.05;5.60;;;14.50;99.90;;;;;;5094374;28;20195;-63
2022/05/03 04:49:53;;;;;;;5.80;5.30;;;14.40;99.90;;;;;;5093671;28;20195;-64
2022/05/03 04:52:22;;;;;;;6.45;5.80;;;14.50;99.90;;;;;;5077398;28;20266;-64
2022/05/03 04:54:49;;;;;;;6.93;5.78;;;14.60;99.90;;;;;;5061814;28;20227;-64
2022/05/03 04:57:17;;;;;;;5.57;5.05;;;14.60;99.90;;;;;;5064732;28;20324;-64
2022/05/03 04:59:45;;;;;;;6.93;6.32;;;14.60;99.90;;;;;;5067475;28;20219;-64
2022/05/03 05:02:15;;;;;;;5.43;5.03;;;14.50;99.90;;;;;;5063873;28;20207;-64
2022/05/03 05:04:43;;;;;;;6.38;5.93;;;14.50;99.90;;;;;;5067793;28;20707;-63
2022/05/03 05:07:11;;;;;;;7.22;6.15;;;14.60;99.90;;;;;;5063204;28;20234;-64
2022/05/03 05:10:23;;;;;;;6.15;5.75;;;14.60;99.90;;;;;;5065733;28;20225;-64
2022/05/03 05:12:28;;;;;;;9.63;6.40;;;14.60;99.90;;;;;;5065739;28;20707;-64
2022/05/03 05:14:56;;;;;;;7.55;6.78;;;14.70;99.90;;;;;;5066352;28;20249;-64
2022/05/03 05:17:26;;;;;;;6.63;6.03;;;14.70;99.90;;;;;;5063607;28;20211;-64
2022/05/03 05:19:53;;;;;;;6.40;5.78;;;14.70;99.90;;;;;;5067459;28;20302;-64
2022/05/03 05:22:22;;;;;;;5.65;5.15;;;14.70;99.90;;;;;;5063388;28;21290;-64
2022/05/03 05:24:50;;;;;;;8.80;6.25;;;14.70;99.90;;;;;;5061436;28;20244;-64
2022/05/03 05:27:19;;;;;;;16.40;6.53;;;14.80;99.90;;;;;;5065342;28;20214;-64
2022/05/03 05:29:46;;;;;;;5.78;5.38;;;14.70;99.90;;;;;;5063891;28;20211;-64
2022/05/03 05:32:15;;;;;;;7.18;6.47;;;14.60;99.90;;;;;;5066748;28;20222;-64
2022/05/03 05:34:44;;;;;;;7.47;6.88;;;14.50;99.90;;;;;;5065873;28;20272;-64
2022/05/03 05:37:12;;;;;;;8.32;7.63;;;14.40;99.90;;;;;;5065435;28;21086;-64
2022/05/03 05:39:40;;;;;;;9.50;6.65;;;14.30;99.90;;;;;;5063785;28;20210;-63
2022/05/03 05:42:08;;;;;;;7.03;6.47;;;14.20;99.90;;;;;;5065624;28;20729;-64
2022/05/03 05:44:36;;;;;;;7.63;6.82;;;14.10;99.90;;;;;;5062734;28;20215;-64
2022/05/03 05:47:05;;;;;;;8.05;7.28;;;14.00;99.90;;;;;;5066647;28;20199;-63
2022/05/03 05:49:33;;;;;;;7.15;6.57;;;14.00;99.90;;;;;;5066848;28;20230;-64
2022/05/03 05:54:44;;;;;;;8.20;7.07;;;14.00;99.90;;;;;;5061933;28;20223;-64
2022/05/03 05:57:12;;;;;;;6.65;6.25;;;13.90;99.90;;;;;;5063762;28;20211;-64
2022/05/03 05:59:40;;;;;;;8.05;7.32;;;13.90;99.90;;;;;;5062621;28;20974;-63
2022/05/03 06:02:08;;;;;;;10.32;7.15;;;14.00;99.90;;;;;;5062721;28;20734;-64
2022/05/03 06:04:36;;;;;;;7.22;6.70;;;13.90;99.90;;;;;;5064376;28;20220;-65
2022/05/03 06:07:05;;;;;;;8.10;7.40;;;14.00;99.90;;;;;;5065931;28;20206;-65
2022/05/03 06:09:34;;;;;;;7.15;6.45;;;14.00;99.90;;;;;;5061936;28;20198;-64
2022/05/03 06:12:02;;;;;;;7.13;6.63;;;14.10;99.90;;;;;;5063519;28;20244;-64
2022/05/03 06:14:30;;;;;;;6.80;6.30;;;14.20;99.90;;;;;;5066578;28;20238;-64
2022/05/03 06:16:59;;;;;;;7.13;6.60;;;14.30;99.90;;;;;;5066450;28;20214;-66
2022/05/03 06:19:26;;;;;;;7.13;6.20;;;14.40;99.90;;;;;;5086611;28;20197;-65
2022/05/03 06:21:54;;;;;;;6.55;6.05;;;14.50;99.90;;;;;;5090719;28;20667;-64
2022/05/03 06:24:24;;;;;;;7.80;7.00;;;14.70;99.90;;;;;;5090548;28;20215;-63
2022/05/03 06:26:51;;;;;;;7.80;7.00;;;14.80;99.90;;;;;;5093477;28;20191;-63
2022/05/03 06:29:19;;;;;;;8.55;6.63;;;15.00;99.90;;;;;;5095401;28;20198;-65
2022/05/03 06:31:48;;;;;;;7.30;6.55;;;15.10;99.90;;;;;;5090800;28;20682;-64
2022/05/03 06:34:16;;;;;;;6.30;5.65;;;15.10;99.90;;;;;;5072468;28;20226;-64
2022/05/03 06:36:45;;;;;;;7.00;6.45;;;15.10;99.90;;;;;;5092059;28;20734;-64
2022/05/03 06:39:13;;;;;;;6.97;6.38;;;15.20;99.90;;;;;;5092088;28;20209;-64
2022/05/03 06:41:42;;;;;;;6.72;6.15;;;15.30;99.90;;;;;;5091837;28;20199;-64
2022/05/03 06:44:10;;;;;;;7.20;6.55;;;15.50;99.90;;;;;;5090769;28;20206;-63
2022/05/03 06:46:38;;;;;;;7.07;6.47;;;15.60;99.90;;;;;;5091780;28;20199;-63
2022/05/03 06:49:07;;;;;;;7.35;6.75;;;15.80;99.90;;;;;;5090754;28;20260;-63
2022/05/03 06:51:35;;;;;;;7.28;6.60;;;16.00;99.90;;;;;;5091761;28;20202;-63
2022/05/03 06:54:03;;;;;;;7.63;6.88;;;16.00;99.90;;;;;;5090867;28;20256;-64
2022/05/03 06:56:35;;;;;;;8.40;7.70;;;15.90;99.90;;;;;;5091651;28;20205;-64
2022/05/03 06:59:06;;;;;;;8.70;8.10;;;15.90;99.90;;;;;;5082145;28;20196;-63
2022/05/03 07:01:35;;;;;;;7.55;6.95;;;15.90;99.90;;;;;;5087572;28;20209;-63
2022/05/03 07:04:03;;;;;;;10.82;7.70;;;16.00;99.90;;;;;;5090697;28;20205;-65
2022/05/03 07:06:31;;;;;;;8.38;7.40;;;16.00;99.90;;;;;;5084993;28;20623;-63
2022/05/03 07:08:58;;;;;;;7.88;7.18;;;16.10;99.90;;;;;;5085089;28;20211;-64
2022/05/03 07:11:26;;;;;;;7.38;6.63;;;16.10;99.90;;;;;;5084755;28;20202;-63
2022/05/03 07:13:54;;;;;;;7.65;6.80;;;16.20;99.90;;;;;;5084155;28;20255;-63
2022/05/03 07:16:23;;;;;;;8.52;7.72;;;16.20;99.90;;;;;;5064811;28;20199;-63
2022/05/03 07:24:24;;;;;;;7.32;6.50;;;16.20;99.90;;;;;;5071107;28;20640;-63
2022/05/03 07:26:52;;;;;;;6.82;6.22;;;16.30;99.90;;;;;;5071057;28;20206;-63
2022/05/03 07:29:20;;;;;;;7.43;6.18;;;16.40;99.90;;;;;;5063795;28;20226;-63
2022/05/03 07:31:51;;;;;;;7.28;6.68;;;16.40;99.90;;;;;;5063239;28;20648;-63
2022/05/03 07:34:19;;;;;;;6.97;6.38;;;16.30;99.90;;;;;;5064744;28;20613;-63
2022/05/03 07:36:46;;;;;;;5.90;5.50;;;16.20;99.90;;;;;;5071270;28;20656;-63
2022/05/03 07:39:14;;;;;;;6.35;5.85;;;16.40;99.90;;;;;;5071142;28;20199;-63
2022/05/03 07:41:42;;;;;;;6.20;5.80;;;16.40;99.90;;;;;;5071111;28;20204;-64
2022/05/03 07:44:10;;;;;;;7.65;6.20;;;16.70;99.90;;;;;;5069948;28;20206;-63
2022/05/03 07:46:38;;;;;;;8.52;7.20;;;16.80;99.90;;;;;;5070677;28;20203;-63
2022/05/03 07:49:09;;;;;;;6.25;5.75;;;16.90;99.90;;;;;;5071132;28;20227;-63
2022/05/03 07:51:37;;;;;;;6.55;5.95;;;17.00;99.90;;;;;;5070924;28;20211;-63
2022/05/03 07:54:05;;;;;;;11.52;7.22;;;17.20;99.90;;;;;;5069884;28;20219;-63
2022/05/03 07:56:33;;;;;;;6.65;6.05;;;17.20;99.90;;;;;;5070547;28;20200;-63
2022/05/03 07:59:02;;;;;;;7.00;6.40;;;17.30;99.90;;;;;;5067355;28;20676;-63
2022/05/03 08:01:30;;;;;;;7.80;7.10;;;17.40;99.90;;;;;;5064942;28;20195;-63
2022/05/03 08:03:58;;;;;;;7.50;6.80;;;17.60;99.90;;;;;;5073771;28;20230;-64
2022/05/03 08:06:28;;;;;;;7.93;7.18;;;18.00;99.90;;;;;;5074406;28;20675;-63
2022/05/03 08:08:56;;;;;;;9.10;7.55;;;18.10;99.90;;;;;;5074584;28;20574;-63
2022/05/03 08:11:24;;;;;;;8.23;7.35;;;18.00;99.90;;;;;;5074528;28;20557;-63
2022/05/03 08:13:52;;;;;;;7.78;7.13;;;17.80;99.90;;;;;;5073419;28;20234;-64
2022/05/03 08:16:21;;;;;;;8.30;7.43;;;17.60;99.90;;;;;;5094305;28;20249;-63
2022/05/03 08:18:49;;;;;;;8.48;7.53;;;17.60;99.90;;;;;;5094814;28;20202;-63
2022/05/03 08:21:17;;;;;;;8.52;7.35;;;17.70;99.90;;;;;;5094579;28;20198;-63
2022/05/03 08:23:47;;;;;;;8.48;7.68;;;17.80;99.90;;;;;;5093770;28;20203;-63
2022/05/03 08:26:15;;;;;;;8.00;7.40;;;18.10;99.90;;;;;;5094289;28;20256;-64
2022/05/03 08:28:48;;;;;;;7.63;6.93;;;18.40;99.90;;;;;;5094246;28;20202;-63
2022/05/03 08:31:16;;;;;;;10.88;8.40;;;18.60;99.90;;;;;;5088452;28;20204;-64
2022/05/03 08:33:44;;;;;;;12.85;8.07;;;18.90;99.90;;;;;;5093395;28;20223;-64
2022/05/03 08:36:12;;;;;;;8.35;7.65;;;19.10;99.90;;;;;;5093955;28;20223;-63
2022/05/03 08:44:25;;;;;;;8.82;7.95;;;19.40;99.90;;;;;;5050886;28;20228;-63
2022/05/03 08:46:55;;;;;;;9.90;8.38;;;19.50;99.90;;;;;;5083905;28;20242;-63
2022/05/03 08:49:25;;;;;;;7.20;6.50;;;19.50;99.90;;;;;;5114087;28;20202;-64
2022/05/03 08:51:54;;;;;;;6.90;6.30;;;19.60;99.90;;;;;;5087108;28;20210;-63
2022/05/03 08:54:22;;;;;;;8.77;8.02;;;19.50;99.90;;;;;;5086888;28;20610;-65
2022/05/03 08:56:51;;;;;;;8.02;7.35;;;19.60;99.90;;;;;;5087441;28;20206;-63
2022/05/03 08:59:19;;;;;;;11.93;7.70;;;19.90;99.90;;;;;;5081907;28;20192;-64
2022/05/03 09:01:48;;;;;;;10.15;7.50;;;20.20;99.90;;;;;;5087376;28;20198;-64
2022/05/03 09:04:16;;;;;;;6.93;6.22;;;20.10;99.90;;;;;;5092988;28;20703;-64
2022/05/03 09:06:47;;;;;;;9.82;7.53;;;20.20;99.90;;;;;;5093504;28;20214;-65
2022/05/03 09:09:16;;;;;;;7.65;7.05;;;20.30;99.90;;;;;;5093758;28;20267;-65
2022/05/03 09:11:46;;;;;;;8.02;6.00;;;20.30;99.80;;;;;;5092519;28;20217;-63
2022/05/03 09:14:25;;;;;;;6.70;6.10;;;20.50;99.60;;;;;;5092640;28;20223;-63
2022/05/03 09:16:54;;;;;;;6.53;6.03;;;20.50;99.90;;;;;;4991231;28;20229;-69
2022/05/03 09:19:24;;;;;;;6.80;5.78;;;20.60;98.70;;;;;;4993589;28;20209;-69
2022/05/03 09:24:55;;;;;;;6.15;5.70;;;20.50;99.50;;;;;;4990334;28;20271;-72
2022/05/03 09:27:25;;;;;;;6.43;5.80;;;20.70;99.80;;;;;;4991372;28;20213;-72
2022/05/03 09:30:03;;;;;;;6.70;6.07;;;21.00;99.90;;;;;;4991417;28;20213;-72
2022/05/03 09:32:37;;;;;;;6.28;5.65;;;21.20;99.20;;;;;;5010498;28;20212;-72
2022/05/03 09:35:06;;;;;;;6.85;6.05;;;21.50;98.50;;;;;;4990030;28;20222;-72
2022/05/03 09:37:40;;;;;;;7.18;6.28;;;21.60;98.60;;;;;;4990005;28;20461;-71
2022/05/03 09:40:12;;;;;;;6.63;6.13;;;21.70;98.90;;;;;;4989576;28;20210;-72
2022/05/03 09:42:40;;;;;;;7.38;6.40;;;21.80;98.60;;;;;;4989605;28;20202;-72
2022/05/03 09:45:09;;;;;;;7.13;6.53;;;22.00;98.40;;;;;;4989858;28;20275;-72
2022/05/03 09:47:51;;;;;;;7.28;6.55;;;22.10;98.70;;;;;;4989948;28;20259;-73
2022/05/03 09:50:28;;;;;;;6.75;6.25;;;22.70;98.40;;;;;;4989617;28;20206;-72
2022/05/03 09:52:56;;;;;;;8.18;6.43;;;22.80;96.50;;;;;;4989051;28;20205;-72
2022/05/03 09:55:29;;;;;;;9.30;5.38;;;22.80;96.60;;;;;;4989797;28;20225;-72
2022/05/03 09:58:02;;;;;;;7.25;6.60;;;22.70;96.50;;;;;;4989836;28;20221;-72
2022/05/03 10:00:33;;;;;;;6.60;6.00;;;22.60;97.20;;;;;;4989090;28;20259;-72
2022/05/03 10:03:04;;;;;;;5.75;5.35;;;22.80;96.80;;;;;;4988670;28;20237;-72
2022/05/03 10:05:32;;;;;;;7.13;6.43;;;22.60;96.80;;;;;;4989689;28;20222;-71
2022/05/03 10:07:59;;;;;;;6.32;5.75;;;22.80;97.80;;;;;;4989533;28;20213;-72
2022/05/03 10:10:28;;;;;;;6.40;5.72;;;22.80;96.90;;;;;;4989421;28;20251;-72
2022/05/03 10:12:57;;;;;;;6.55;5.90;;;22.90;97.40;;;;;;4988983;28;20565;-70
2022/05/03 10:21:06;;;;;;;5.72;5.10;;;22.50;96.40;;;;;;4989320;28;20206;-73
2022/05/03 10:23:35;;;;;;;6.50;5.95;;;22.70;96.50;;;;;;4988846;28;20202;-72
2022/05/03 10:26:05;;;;;;;6.07;5.53;;;22.50;96.20;;;;;;4989304;28;20244;-72
2022/05/03 10:29:07;;;;;;;5.82;5.22;;;22.40;96.10;;;;;;4989214;28;20206;-72
2022/05/03 10:31:54;;;;;;;5.85;5.28;;;22.80;97.10;;;;;;4984956;28;20217;-72
2022/05/03 10:34:46;;;;;;;5.47;5.00;;;22.80;95.70;;;;;;4987623;28;20545;-71
2022/05/03 10:37:16;;;;;;;6.40;5.68;;;22.60;96.10;;;;;;4989104;28;20209;-71
2022/05/03 10:39:55;;;;;;;7.03;6.10;;;22.50;95.30;;;;;;4989464;28;20202;-71
2022/05/03 10:42:25;;;;;;;5.35;4.80;;;22.40;95.50;;;;;;4988581;28;20216;-71
2022/05/03 10:45:03;;;;;;;5.97;5.40;;;22.70;96.60;;;;;;4989171;28;20249;-72
2022/05/03 10:47:44;;;;;;;6.93;4.95;;;22.60;95.00;;;;;;4988975;28;20198;-73
2022/05/03 10:50:32;;;;;;;8.52;5.10;;;22.40;95.60;;;;;;4988782;28;20238;-72
2022/05/03 10:53:25;;;;;;;7.15;5.22;;;22.90;94.90;;;;;;4988339;28;20213;-72
2022/05/03 10:56:16;;;;;;;6.05;5.30;;;23.10;94.30;;;;;;4991428;28;20240;-72
2022/05/03 10:58:47;;;;;;;8.13;4.65;;;23.20;94.30;;;;;;4988476;28;20710;-72
2022/05/03 11:01:18;;;;;;;6.40;5.22;;;23.60;95.40;;;;;;4988242;28;20206;-72
2022/05/03 11:04:09;;;;;;;5.18;4.70;;;23.50;93.60;;;;;;4988178;28;20198;-72
2022/05/03 11:06:49;;;;;;;5.15;4.75;;;23.60;94.80;;;;;;4982598;28;20237;-72
2022/05/03 11:09:31;;;;;;;6.15;5.13;;;23.40;93.30;;;;;;4984241;28;20217;-70
2022/05/03 11:12:01;;;;;;;5.15;4.75;;;23.20;94.60;;;;;;4988001;28;20210;-70
2022/05/03 11:14:50;;;;;;;5.30;4.80;;;23.30;94.40;;;;;;4988239;28;20218;-72
2022/05/03 11:17:18;;;;;;;7.45;4.60;;;23.30;94.20;;;;;;4982568;28;20240;-71
2022/05/03 11:19:52;;;;;;;5.65;5.15;;;23.00;93.60;;;;;;4982438;28;20722;-71
2022/05/03 11:22:24;;;;;;;5.13;4.60;;;23.00;94.10;;;;;;4987696;28;20205;-72
2022/05/03 11:24:59;;;;;;;8.07;4.90;;;23.00;93.70;;;;;;4988438;28;20217;-70
2022/05/03 11:27:27;;;;;;;5.07;4.68;;;23.00;93.30;;;;;;4988580;28;20214;-70
2022/05/03 11:29:58;;;;;;;5.28;4.50;;;22.90;94.50;;;;;;4989149;28;20559;-71
2022/05/03 11:32:31;;;;;;;4.63;4.22;;;23.00;94.90;;;;;;5006434;28;20229;-72
2022/05/03 11:35:07;;;;;;;7.35;5.13;;;22.80;93.80;;;;;;4988618;28;20653;-72
2022/05/03 11:37:45;;;;;;;5.60;5.05;;;22.50;93.90;;;;;;4991614;28;20210;-71
2022/05/03 11:40:14;;;;;;;7.05;5.28;;;22.30;93.40;;;;;;4991818;28;20254;-72
2022/05/03 11:42:44;;;;;;;4.63;4.22;;;22.40;94.30;;;;;;4991068;28;20214;-71
2022/05/03 11:45:14;;;;;;;4.78;4.15;;;22.60;94.00;;;;;;4985193;28;20736;-71
2022/05/03 11:47:45;;;;;;;5.30;4.50;;;22.60;94.40;;;;;;4985842;28;20682;-72
2022/05/03 11:55:58;;;;;;;5.85;5.10;;;22.40;94.40;;;;;;4986138;28;20686;-73
2022/05/03 11:56:01;;;;;;;4.43;4.03;;;22.50;94.00;;;;;;4991392;28;20615;-72
2022/05/03 11:58:31;;;;;;;5.68;5.05;;;22.80;94.00;;;;;;4991692;28;20198;-72
2022/05/03 12:00:59;;;;;;;5.43;4.82;;;22.80;93.70;;;;;;4990712;28;20207;-72
2022/05/03 12:03:27;;;;;;;4.75;4.38;;;23.00;94.70;;;;;;4990802;28;20202;-72
2022/05/03 12:06:02;;;;;;;6.97;4.50;;;23.20;93.90;;;;;;4991290;28;20764;-71
2022/05/03 12:08:34;;;;;;;5.82;5.07;;;23.30;94.90;;;;;;4991475;28;20209;-73
2022/05/03 12:11:02;;;;;;;5.18;4.47;;;23.30;93.20;;;;;;4991393;28;20202;-72
2022/05/03 12:13:33;;;;;;;10.73;4.47;;;23.60;93.60;;;;;;4990478;28;20304;-72
2022/05/03 12:16:11;;;;;;;5.60;5.07;;;24.10;92.30;;;;;;4990599;28;20245;-71
2022/05/03 12:18:41;;;;;;;4.60;4.28;;;24.30;92.70;;;;;;4991620;28;20579;-69
2022/05/03 12:21:11;;;;;;;5.32;4.90;;;24.50;92.00;;;;;;4991301;28;20316;-71
2022/05/03 12:23:43;;;;;;;5.72;4.93;;;24.90;93.10;;;;;;4990581;28;20671;-72
2022/05/03 12:26:17;;;;;;;5.85;5.25;;;24.80;91.70;;;;;;4990681;28;20218;-71
2022/05/03 12:28:46;;;;;;;4.60;4.30;;;24.70;91.30;;;;;;4991892;28;20202;-72
2022/05/03 12:31:16;;;;;;;3.92;3.72;;;24.50;91.70;;;;;;4985176;28;20233;-72
2022/05/03 12:33:46;;;;;;;5.38;5.00;;;24.50;91.70;;;;;;5005710;28;20210;-71
2022/05/03 12:36:35;;;;;;;5.32;4.82;;;24.20;91.30;;;;;;4990634;28;20218;-72
2022/05/03 12:39:12;;;;;;;5.32;4.82;;;24.20;92.60;;;;;;4991084;28;20214;-73
2022/05/03 12:41:55;;;;;;;6.90;4.75;;;23.90;92.10;;;;;;4991219;28;20202;-70
2022/05/03 12:44:23;;;;;;;5.00;4.70;;;23.60;91.30;;;;;;4990508;28;20216;-72
2022/05/03 12:46:52;;;;;;;6.15;4.70;;;23.40;92.60;;;;;;4984258;28;20202;-71
2022/05/03 12:49:21;;;;;;;5.65;5.15;;;23.30;93.00;;;;;;4990703;28;20206;-71
2022/05/03 12:51:49;;;;;;;5.07;4.63;;;23.30;92.70;;;;;;4990802;28;20206;-71
2022/05/03 12:54:19;;;;;;;5.35;4.50;;;23.80;92.30;;;;;;4989866;28;20209;-72
2022/05/03 12:59:32;;;;;;;5.50;4.60;;;24.70;91.90;;;;;;4989988;28;20677;-71
2022/05/03 13:02:00;;;;;;;6.05;5.35;;;25.30;91.50;;;;;;4989417;28;20620;-71
2022/05/03 13:04:29;;;;;;;5.35;4.90;;;25.50;90.30;;;;;;4990409;28;20293;-73
2022/05/03 13:06:58;;;;;;;4.45;4.05;;;25.50;91.10;;;;;;4990120;28;20213;-72
2022/05/03 13:09:30;;;;;;;5.63;4.93;;;25.90;89.90;;;;;;4990646;28;20198;-72
2022/05/03 13:11:58;;;;;;;6.80;4.50;;;25.80;89.70;;;;;;4990129;28;20210;-72
2022/05/03 13:14:28;;;;;;;6.53;4.85;;;25.70;89.10;;;;;;4990061;28;20209;-72
2022/05/03 13:16:57;;;;;;;4.05;3.75;;;26.00;88.40;;;;;;4990177;28;20222;-72
2022/05/03 13:19:24;;;;;;;5.25;4.13;;;26.40;89.30;;;;;;4990622;28;20209;-72
2022/05/03 13:21:53;;;;;;;4.68;4.28;;;26.70;86.30;;;;;;4992233;28;20216;-72
2022/05/03 13:24:21;;;;;;;5.28;4.88;;;26.70;85.20;;;;;;4989832;28;20663;-72
2022/05/03 13:26:51;;;;;;;4.88;4.47;;;26.70;84.50;;;;;;4989995;28;20201;-71
2022/05/03 13:29:20;;;;;;;4.30;3.95;;;26.30;84.60;;;;;;4995621;28;20209;-72
2022/05/03 13:31:48;;;;;;;5.32;4.45;;;26.40;84.70;;;;;;5032425;28;20410;-72
2022/05/03 13:34:16;;;;;;;4.57;3.92;;;26.60;83.00;;;;;;4989268;28;20202;-72
2022/05/03 13:42:17;;;;;;;5.05;4.55;;;26.90;81.30;;;;;;4989249;28;20210;-72
2022/05/03 13:44:45;;;;;;;4.70;4.30;;;26.60;80.50;;;;;;4989460;28;20267;-72
2022/05/03 13:47:14;;;;;;;6.82;3.78;;;26.70;81.20;;;;;;4989711;28;20198;-72
2022/05/03 13:49:43;;;;;;;5.13;4.60;;;26.60;80.70;;;;;;4989905;28;20209;-72
2022/05/03 13:52:11;;;;;;;5.40;4.82;;;26.50;81.20;;;;;;4989409;28;20210;-72